createdAt,value
2024-05-09T00:00:35.562Z,97.64
2024-05-09T00:03:07.412Z,98.29
2024-05-09T00:05:34.628Z,98.66
2024-05-09T00:08:01.580Z,98.27
2024-05-09T00:10:35.438Z,98.11
2024-05-09T00:13:05.097Z,98.10
2024-05-09T00:15:33.325Z,98.11
2024-05-09T00:18:00.265Z,98.48
2024-05-09T00:20:35.280Z,98.60
2024-05-09T00:23:07.032Z,99.14
2024-05-09T00:25:34.012Z,98.95
2024-05-09T00:28:00.830Z,99.13
2024-05-09T00:30:33.682Z,100.00
2024-05-09T00:33:03.203Z,100.00
2024-05-09T00:35:30.376Z,100.00
2024-05-09T00:37:57.143Z,99.86
2024-05-09T00:40:34.770Z,99.04
2024-05-09T00:43:06.180Z,99.05
2024-05-09T00:45:33.752Z,99.67
2024-05-09T00:48:01.858Z,99.60
2024-05-09T00:50:35.708Z,100.00
2024-05-09T00:53:05.222Z,99.48
2024-05-09T00:55:31.971Z,100.00
2024-05-09T00:57:58.565Z,100.00
2024-05-09T01:00:31.702Z,100.00
2024-05-09T01:03:05.345Z,100.00
2024-05-09T01:05:32.514Z,100.00
2024-05-09T01:07:59.260Z,100.00
2024-05-09T01:10:33.517Z,99.88
2024-05-09T01:13:02.795Z,99.68
2024-05-09T01:15:29.396Z,99.83
2024-05-09T01:17:56.861Z,99.69
2024-05-09T01:20:32.244Z,99.84
2024-05-09T01:23:07.492Z,99.85
2024-05-09T01:25:35.330Z,100.00
2024-05-09T01:28:01.951Z,100.00
2024-05-09T01:30:34.398Z,100.00
2024-05-09T01:33:04.016Z,100.00
2024-05-09T01:35:31.062Z,100.00
2024-05-09T01:37:57.717Z,100.00
2024-05-09T01:40:33.499Z,100.00
2024-05-09T01:43:04.726Z,100.00
2024-05-09T01:45:31.467Z,100.00
2024-05-09T01:47:58.505Z,100.00
2024-05-09T01:50:34.107Z,100.00
2024-05-09T01:53:05.499Z,100.00
2024-05-09T01:55:32.170Z,100.00
2024-05-09T01:57:58.805Z,100.00
2024-05-09T02:00:36.853Z,100.00
2024-05-09T02:03:15.607Z,100.00
2024-05-09T02:05:45.419Z,100.00
2024-05-09T02:08:20.457Z,100.00
2024-05-09T02:10:48.535Z,100.00
2024-05-09T02:13:15.882Z,100.00
2024-05-09T02:15:42.858Z,100.00
2024-05-09T02:18:10.272Z,100.00
2024-05-09T02:20:41.722Z,100.00
2024-05-09T02:23:09.278Z,100.00
2024-05-09T02:25:36.043Z,100.00
2024-05-09T02:28:02.844Z,100.00
2024-05-09T02:30:38.628Z,100.00
2024-05-09T02:33:09.252Z,100.00
2024-05-09T02:35:36.999Z,100.00
2024-05-09T02:38:03.802Z,100.00
2024-05-09T02:40:36.743Z,100.00
2024-05-09T02:43:06.456Z,100.00
2024-05-09T02:45:33.513Z,100.00
2024-05-09T02:48:00.735Z,100.00
2024-05-09T02:50:34.523Z,100.00
2024-05-09T02:53:05.942Z,100.00
2024-05-09T02:55:32.900Z,100.00
2024-05-09T02:57:59.728Z,100.00
2024-05-09T03:00:34.704Z,100.00
2024-05-09T03:03:08.310Z,100.00
2024-05-09T03:05:36.211Z,100.00
2024-05-09T03:08:03.025Z,100.00
2024-05-09T03:10:35.550Z,100.00
2024-05-09T03:13:07.846Z,100.00
2024-05-09T03:15:34.579Z,100.00
2024-05-09T03:18:01.585Z,100.00
2024-05-09T03:20:33.859Z,100.00
2024-05-09T03:23:02.500Z,100.00
2024-05-09T03:25:29.267Z,100.00
2024-05-09T03:27:55.817Z,100.00
2024-05-09T03:30:35.794Z,100.00
2024-05-09T03:33:14.120Z,100.00
2024-05-09T03:35:41.778Z,100.00
2024-05-09T03:38:08.631Z,100.00
2024-05-09T03:40:35.512Z,100.00
2024-05-09T03:43:02.104Z,100.00
2024-05-09T03:45:28.688Z,100.00
2024-05-09T03:47:55.593Z,100.00
2024-05-09T03:50:29.728Z,100.00
2024-05-09T03:53:01.062Z,100.00
2024-05-09T03:55:28.049Z,100.00
2024-05-09T03:57:54.627Z,100.00
2024-05-09T04:00:30.558Z,100.00
2024-05-09T04:03:03.789Z,100.00
2024-05-09T04:05:31.143Z,100.00
2024-05-09T04:07:58.015Z,100.00
2024-05-09T04:10:31.340Z,100.00
2024-05-09T04:13:00.657Z,100.00
2024-05-09T04:15:27.271Z,100.00
2024-05-09T04:17:54.129Z,100.00
2024-05-09T04:20:32.828Z,100.00
2024-05-09T04:23:05.835Z,100.00
2024-05-09T04:25:32.708Z,100.00
2024-05-09T04:27:59.436Z,100.00
2024-05-09T04:30:34.850Z,100.00
2024-05-09T04:33:06.672Z,100.00
2024-05-09T04:35:34.416Z,100.00
2024-05-09T04:38:01.302Z,100.00
2024-05-09T04:40:33.407Z,100.00
2024-05-09T04:43:03.517Z,100.00
2024-05-09T04:45:30.365Z,100.00
2024-05-09T04:47:57.243Z,100.00
2024-05-09T04:50:33.454Z,100.00
2024-05-09T04:53:05.067Z,100.00
2024-05-09T04:55:32.610Z,100.00
2024-05-09T04:57:59.269Z,100.00
2024-05-09T05:00:32.609Z,100.00
2024-05-09T05:03:15.229Z,100.00
2024-05-09T05:05:44.968Z,100.00
2024-05-09T05:08:17.428Z,100.00
2024-05-09T05:10:45.271Z,100.00
2024-05-09T05:13:24.788Z,100.00
2024-05-09T05:15:57.481Z,100.00
2024-05-09T05:18:26.530Z,100.00
2024-05-09T05:20:54.788Z,100.00
2024-05-09T05:23:22.459Z,100.00
2024-05-09T05:25:50.557Z,100.00
2024-05-09T05:28:17.647Z,100.00
2024-05-09T05:30:44.776Z,100.00
2024-05-09T05:33:15.580Z,100.00
2024-05-09T05:35:42.669Z,100.00
2024-05-09T05:38:10.396Z,100.00
2024-05-09T05:40:38.689Z,100.00
2024-05-09T05:43:08.610Z,100.00
2024-05-09T05:45:35.464Z,100.00
2024-05-09T05:48:04.037Z,100.00
2024-05-09T05:50:35.874Z,100.00
2024-05-09T05:53:06.187Z,100.00
2024-05-09T05:55:32.978Z,100.00
2024-05-09T05:58:00.630Z,100.00
2024-05-09T06:00:34.414Z,100.00
2024-05-09T06:03:05.268Z,100.00
2024-05-09T06:05:32.657Z,100.00
2024-05-09T06:07:59.595Z,100.00
2024-05-09T06:10:34.691Z,100.00
2024-05-09T06:13:05.262Z,100.00
2024-05-09T06:15:31.874Z,100.00
2024-05-09T06:17:58.786Z,100.00
2024-05-09T06:20:34.605Z,99.90
2024-05-09T06:23:06.188Z,99.17
2024-05-09T06:25:33.352Z,98.72
2024-05-09T06:28:00.909Z,97.12
2024-05-09T06:30:36.644Z,96.58
2024-05-09T06:33:07.207Z,96.65
2024-05-09T06:35:34.302Z,96.02
2024-05-09T06:38:01.552Z,94.67
2024-05-09T06:40:36.706Z,94.88
2024-05-09T06:43:10.554Z,94.74
2024-05-09T06:45:37.297Z,93.91
2024-05-09T06:48:04.403Z,91.77
2024-05-09T06:50:37.009Z,90.30
2024-05-09T06:53:05.145Z,89.39
2024-05-09T06:55:31.807Z,89.15
2024-05-09T06:57:58.411Z,87.41
2024-05-09T07:00:30.959Z,86.70
2024-05-09T07:03:14.411Z,84.39
2024-05-09T07:05:43.604Z,83.77
2024-05-09T07:08:10.689Z,82.81
2024-05-09T07:10:37.837Z,82.20
2024-05-09T07:13:11.758Z,81.18
2024-05-09T07:15:39.006Z,81.78
2024-05-09T07:18:20.262Z,80.44
2024-05-09T07:20:48.993Z,81.22
2024-05-09T07:23:16.748Z,80.51
2024-05-09T07:25:43.539Z,79.38
2024-05-09T07:28:12.164Z,79.22
2024-05-09T07:30:38.728Z,79.23
2024-05-09T07:33:05.747Z,78.39
2024-05-09T07:35:32.651Z,77.68
2024-05-09T07:37:59.462Z,76.51
2024-05-09T07:40:33.150Z,76.25
2024-05-09T07:43:13.101Z,74.76
2024-05-09T07:45:49.396Z,72.26
2024-05-09T07:53:38.559Z,71.83
2024-05-09T07:56:07.359Z,71.33
2024-05-09T07:58:34.426Z,70.68
2024-05-09T08:01:02.640Z,69.30
2024-05-09T08:03:29.482Z,68.58
2024-05-09T08:05:56.283Z,68.15
2024-05-09T08:08:23.011Z,67.31
2024-05-09T08:10:50.559Z,66.49
2024-05-09T08:13:17.279Z,66.60
2024-05-09T08:15:43.966Z,65.58
2024-05-09T08:18:11.347Z,64.43
2024-05-09T08:20:38.416Z,64.26
2024-05-09T08:23:05.107Z,63.30
2024-05-09T08:25:31.688Z,62.02
2024-05-09T08:27:58.324Z,63.49
2024-05-09T08:30:32.565Z,62.82
2024-05-09T08:33:04.184Z,62.75
2024-05-09T08:35:30.918Z,63.98
2024-05-09T08:37:57.631Z,63.31
2024-05-09T08:40:31.065Z,63.66
2024-05-09T08:43:02.862Z,63.89
2024-05-09T08:45:30.217Z,65.23
2024-05-09T08:47:59.594Z,65.47
2024-05-09T08:50:32.467Z,64.68
2024-05-09T08:53:05.414Z,63.56
2024-05-09T08:55:32.112Z,63.13
2024-05-09T08:57:59.276Z,62.76
2024-05-09T09:00:35.661Z,63.94
2024-05-09T09:03:06.067Z,62.73
2024-05-09T09:05:34.821Z,61.95
2024-05-09T09:08:04.643Z,63.22
2024-05-09T09:10:32.714Z,63.09
2024-05-09T09:13:09.618Z,60.21
2024-05-09T09:15:46.900Z,58.19
2024-05-09T09:18:14.045Z,58.39
2024-05-09T09:20:40.789Z,57.17
2024-05-09T09:23:07.835Z,58.39
2024-05-09T09:25:34.458Z,56.84
2024-05-09T09:28:01.196Z,55.68
2024-05-09T09:30:35.366Z,57.30
2024-05-09T09:33:08.499Z,56.24
2024-05-09T09:35:38.533Z,56.30
2024-05-09T09:38:06.975Z,54.54
2024-05-09T09:40:37.651Z,54.86
2024-05-09T09:43:14.195Z,52.36
2024-05-09T09:45:41.984Z,52.43
2024-05-09T09:48:10.491Z,52.56
2024-05-09T09:50:37.718Z,50.93
2024-05-09T09:53:05.035Z,51.61
2024-05-09T09:55:32.628Z,51.90
2024-05-09T09:57:59.771Z,53.13
2024-05-09T10:00:32.633Z,52.22
2024-05-09T10:03:00.866Z,50.62
2024-05-09T10:05:28.448Z,50.17
2024-05-09T10:07:56.000Z,51.00
2024-05-09T10:10:30.408Z,51.01
2024-05-09T10:13:06.811Z,50.25
2024-05-09T10:15:50.422Z,49.72
2024-05-09T10:18:17.316Z,51.08
2024-05-09T10:20:44.841Z,50.56
2024-05-09T10:23:30.635Z,49.07
2024-05-09T10:25:58.557Z,49.99
2024-05-09T10:28:26.945Z,48.08
2024-05-09T10:31:19.736Z,46.97
2024-05-09T10:33:52.052Z,47.63
2024-05-09T10:36:24.118Z,47.38
2024-05-09T10:38:51.678Z,48.27
2024-05-09T10:41:19.648Z,47.73
2024-05-09T10:43:47.287Z,48.69
2024-05-09T10:46:19.039Z,46.88
2024-05-09T10:48:47.449Z,47.35
2024-05-09T10:51:14.197Z,47.22
2024-05-09T10:53:44.643Z,46.69
2024-05-09T10:56:11.636Z,46.54
2024-05-09T10:58:38.222Z,47.86
2024-05-09T11:01:07.080Z,48.77
2024-05-09T11:03:34.504Z,48.43
2024-05-09T11:06:01.285Z,48.42
2024-05-09T11:08:27.953Z,47.71
2024-05-09T11:10:54.964Z,48.69
2024-05-09T11:13:32.602Z,50.32
2024-05-09T11:16:00.001Z,49.37
2024-05-09T11:18:30.650Z,49.54
2024-05-09T11:21:00.342Z,49.21
2024-05-09T11:23:30.030Z,49.57
2024-05-09T11:25:58.148Z,49.43
2024-05-09T11:28:26.894Z,49.42
2024-05-09T11:31:05.372Z,48.83
2024-05-09T11:33:32.180Z,50.86
2024-05-09T11:35:58.887Z,51.10
2024-05-09T11:38:25.455Z,51.06
2024-05-09T11:40:52.091Z,51.64
2024-05-09T11:43:18.704Z,51.95
2024-05-09T11:45:45.318Z,52.12
2024-05-09T11:48:12.029Z,52.41
2024-05-09T11:50:39.018Z,52.28
2024-05-09T11:53:06.594Z,51.66
2024-05-09T11:55:36.402Z,53.69
2024-05-09T11:58:03.558Z,52.33
2024-05-09T12:00:36.594Z,52.91
2024-05-09T12:03:05.376Z,52.74
2024-05-09T12:05:33.095Z,53.61
2024-05-09T12:08:00.539Z,52.63
2024-05-09T12:10:33.101Z,54.12
2024-05-09T12:13:02.880Z,53.13
2024-05-09T12:15:30.182Z,52.06
2024-05-09T12:17:59.000Z,51.97
2024-05-09T12:20:35.423Z,50.74
2024-05-09T12:23:05.305Z,51.79
2024-05-09T12:25:32.004Z,52.01
2024-05-09T12:27:58.735Z,52.36
2024-05-09T12:30:34.445Z,51.06
2024-05-09T12:33:05.003Z,50.72
2024-05-09T12:35:31.897Z,50.26
2024-05-09T12:37:58.528Z,50.67
2024-05-09T12:40:34.280Z,51.70
2024-05-09T12:43:04.378Z,51.91
2024-05-09T12:45:31.427Z,51.36
2024-05-09T12:47:58.354Z,51.84
2024-05-09T12:50:31.678Z,51.77
2024-05-09T12:53:00.451Z,50.97
2024-05-09T12:55:28.368Z,52.67
2024-05-09T12:57:56.493Z,51.70
2024-05-09T13:00:28.242Z,50.83
2024-05-09T13:03:00.632Z,49.98
2024-05-09T13:05:27.908Z,49.70
2024-05-09T13:07:56.329Z,49.82
2024-05-09T13:10:29.434Z,52.12
2024-05-09T13:12:59.589Z,50.00
2024-05-09T13:15:26.524Z,50.28
2024-05-09T13:17:53.288Z,49.73
2024-05-09T13:20:28.976Z,50.54
2024-05-09T13:23:01.718Z,51.53
2024-05-09T13:25:28.359Z,50.72
2024-05-09T13:27:55.205Z,50.07
2024-05-09T13:30:29.418Z,49.78
2024-05-09T13:33:05.157Z,50.60
2024-05-09T13:35:32.308Z,50.43
2024-05-09T13:38:01.103Z,50.60
2024-05-09T13:40:33.575Z,51.17
2024-05-09T13:43:02.820Z,51.79
2024-05-09T13:45:29.602Z,50.96
2024-05-09T13:47:56.633Z,51.97
2024-05-09T13:50:31.370Z,51.19
2024-05-09T13:53:02.026Z,51.39
2024-05-09T13:55:28.773Z,52.16
2024-05-09T13:57:55.807Z,50.60
2024-05-09T14:00:32.301Z,50.19
2024-05-09T14:03:09.800Z,50.49
2024-05-09T14:05:36.783Z,51.41
2024-05-09T14:08:03.774Z,50.69
2024-05-09T14:10:31.958Z,49.86
2024-05-09T14:12:59.805Z,52.09
2024-05-09T14:15:26.689Z,50.19
2024-05-09T14:17:53.742Z,49.21
2024-05-09T14:20:30.020Z,49.79
2024-05-09T14:23:01.424Z,48.90
2024-05-09T14:25:28.425Z,52.03
2024-05-09T14:27:57.113Z,48.54
2024-05-09T14:30:30.789Z,46.92
2024-05-09T14:33:03.456Z,46.66
2024-05-09T14:35:30.180Z,45.02
2024-05-09T14:37:56.881Z,44.74
2024-05-09T14:40:36.631Z,44.07
2024-05-09T14:43:08.308Z,43.85
2024-05-09T14:45:35.311Z,44.40
2024-05-09T14:48:02.792Z,45.45
2024-05-09T14:50:35.843Z,44.09
2024-05-09T14:53:06.399Z,43.24
2024-05-09T14:55:35.717Z,40.71
2024-05-09T14:58:03.234Z,39.90
2024-05-09T15:00:35.585Z,40.09
2024-05-09T15:03:03.810Z,41.27
2024-05-09T15:05:30.687Z,41.04
2024-05-09T15:07:58.139Z,42.69
2024-05-09T15:10:33.673Z,42.74
2024-05-09T15:13:02.806Z,42.70
2024-05-09T15:15:29.594Z,43.70
2024-05-09T15:17:56.656Z,43.28
2024-05-09T15:20:31.131Z,42.79
2024-05-09T15:23:02.076Z,42.29
2024-05-09T15:25:28.947Z,41.19
2024-05-09T15:27:55.816Z,40.62
2024-05-09T15:32:52.242Z,40.51
2024-05-09T15:35:18.998Z,40.40
2024-05-09T15:37:48.134Z,40.31
2024-05-09T15:40:18.910Z,41.78
2024-05-09T15:42:53.327Z,41.62
2024-05-09T15:45:19.977Z,41.04
2024-05-09T15:47:46.803Z,43.31
2024-05-09T15:50:20.435Z,43.55
2024-05-09T15:52:55.336Z,43.96
2024-05-09T15:55:21.930Z,42.40
2024-05-09T15:57:48.619Z,42.46
2024-05-09T16:00:24.373Z,41.48
2024-05-09T16:02:55.633Z,42.44
2024-05-09T16:05:22.668Z,43.18
2024-05-09T16:07:49.403Z,42.61
2024-05-09T16:10:22.736Z,43.00
2024-05-09T16:12:52.351Z,42.86
2024-05-09T16:15:18.956Z,42.98
2024-05-09T16:17:45.630Z,43.49
2024-05-09T16:20:18.101Z,41.39
2024-05-09T16:22:48.601Z,41.14
2024-05-09T16:25:15.233Z,40.92
2024-05-09T16:27:42.066Z,40.26
2024-05-09T16:30:12.062Z,39.97
2024-05-09T16:32:46.293Z,39.54
2024-05-09T16:35:13.774Z,39.26
2024-05-09T16:37:40.419Z,38.88
2024-05-09T16:40:15.244Z,38.78
2024-05-09T16:42:46.072Z,39.63
2024-05-09T16:45:13.153Z,40.02
2024-05-09T16:47:40.095Z,40.37
2024-05-09T16:50:08.568Z,40.46
2024-05-09T16:52:35.359Z,40.87
2024-05-09T16:55:02.035Z,42.46
2024-05-09T16:57:28.835Z,43.58
2024-05-09T16:59:55.400Z,44.11
2024-05-09T17:02:22.353Z,44.87
2024-05-09T17:04:48.995Z,46.70
2024-05-09T17:07:15.890Z,48.03
2024-05-09T17:09:42.589Z,48.82
2024-05-09T17:12:09.203Z,49.38
2024-05-09T17:14:35.760Z,49.74
2024-05-09T17:17:02.489Z,49.95
2024-05-09T17:19:29.381Z,51.14
2024-05-09T17:21:55.998Z,51.98
2024-05-09T17:24:22.635Z,52.64
2024-05-09T17:26:49.698Z,53.00
2024-05-09T17:29:18.601Z,54.30
2024-05-09T17:31:45.186Z,54.67
2024-05-09T17:34:11.930Z,55.04
2024-05-09T17:36:38.785Z,55.00
2024-05-09T17:39:05.643Z,55.77
2024-05-09T17:41:32.218Z,56.36
2024-05-09T17:43:58.765Z,56.67
2024-05-09T17:46:25.463Z,57.85
2024-05-09T17:48:52.228Z,58.23
2024-05-09T17:51:18.944Z,59.27
2024-05-09T17:53:47.758Z,60.11
2024-05-09T17:56:15.184Z,60.24
2024-05-09T17:58:41.782Z,60.14
2024-05-09T18:01:08.502Z,61.18
2024-05-09T18:03:35.251Z,61.21
2024-05-09T18:06:02.082Z,61.81
2024-05-09T18:08:28.684Z,62.51
2024-05-09T18:10:55.878Z,62.61
2024-05-09T18:13:22.827Z,62.53
2024-05-09T18:15:49.537Z,62.80
2024-05-09T18:18:16.359Z,62.63
2024-05-09T18:20:45.561Z,63.52
2024-05-09T18:23:15.605Z,63.47
2024-05-09T18:25:43.512Z,62.92
2024-05-09T18:28:10.194Z,64.36
2024-05-09T18:30:37.592Z,64.42
2024-05-09T18:33:06.643Z,63.24
2024-05-09T18:35:34.637Z,63.39
2024-05-09T18:38:01.308Z,63.88
2024-05-09T18:40:33.708Z,64.32
2024-05-09T18:43:04.169Z,64.64
2024-05-09T18:45:33.466Z,64.90
2024-05-09T18:48:00.299Z,65.52
2024-05-09T18:50:34.621Z,65.95
2024-05-09T18:53:08.572Z,66.81
2024-05-09T18:55:35.653Z,66.75
2024-05-09T18:58:03.365Z,67.58
2024-05-09T19:00:35.759Z,68.14
2024-05-09T19:03:09.573Z,68.46
2024-05-09T19:05:39.025Z,68.08
2024-05-09T19:08:07.322Z,69.12
2024-05-09T19:10:35.513Z,69.78
2024-05-09T19:13:07.156Z,70.09
2024-05-09T19:15:38.570Z,70.88
2024-05-09T19:18:06.101Z,71.66
2024-05-09T19:20:35.219Z,71.42
2024-05-09T19:23:03.456Z,72.23
2024-05-09T19:25:30.333Z,72.74
2024-05-09T19:27:56.978Z,72.40
2024-05-09T19:30:30.535Z,73.66
2024-05-09T19:33:05.978Z,74.27
2024-05-09T19:35:32.926Z,74.02
2024-05-09T19:37:59.635Z,74.54
2024-05-09T19:40:31.379Z,74.08
2024-05-09T19:43:00.675Z,73.64
2024-05-09T19:45:27.459Z,74.26
2024-05-09T19:47:54.272Z,75.45
2024-05-09T19:50:27.143Z,75.52
2024-05-09T19:53:03.029Z,75.81
2024-05-09T19:55:29.717Z,75.44
2024-05-09T19:57:56.319Z,75.76
2024-05-09T20:00:29.460Z,76.18
2024-05-09T20:03:02.202Z,76.86
2024-05-09T20:05:31.103Z,76.24
2024-05-09T20:07:58.022Z,76.76
2024-05-09T20:10:30.006Z,77.27
2024-05-09T20:12:59.465Z,77.77
2024-05-09T20:15:26.164Z,78.19
2024-05-09T20:17:53.327Z,79.29
2024-05-09T20:20:28.427Z,78.87
2024-05-09T20:23:02.988Z,79.40
2024-05-09T20:25:29.818Z,79.40
2024-05-09T20:27:56.467Z,79.05
2024-05-09T20:30:30.526Z,79.84
2024-05-09T20:32:59.831Z,80.55
2024-05-09T20:35:26.731Z,80.50
2024-05-09T20:37:53.423Z,80.77
2024-05-09T20:40:28.279Z,80.98
2024-05-09T20:42:58.847Z,81.71
2024-05-09T20:45:25.572Z,81.07
2024-05-09T20:47:52.302Z,81.48
2024-05-09T20:50:28.025Z,82.35
2024-05-09T20:53:02.597Z,82.28
2024-05-09T20:55:30.057Z,82.97
2024-05-09T20:57:57.051Z,83.23
2024-05-09T21:00:30.310Z,83.26
2024-05-09T21:03:05.791Z,84.11
2024-05-09T21:05:33.079Z,84.57
2024-05-09T21:07:59.892Z,84.80
2024-05-09T21:10:27.257Z,84.95
2024-05-09T21:12:56.221Z,87.70
2024-05-09T21:15:22.997Z,84.50
2024-05-09T21:17:49.605Z,84.89
2024-05-09T21:20:20.498Z,85.03
2024-05-09T21:22:50.730Z,84.91
2024-05-09T21:25:17.346Z,84.94
2024-05-09T21:27:44.128Z,85.21
2024-05-09T21:30:18.410Z,86.11
2024-05-09T21:32:49.882Z,85.94
2024-05-09T21:35:17.677Z,85.72
2024-05-09T21:37:44.314Z,86.39
2024-05-09T21:40:13.936Z,86.27
2024-05-09T21:42:48.197Z,85.64
2024-05-09T21:45:14.837Z,85.57
2024-05-09T21:47:41.643Z,85.08
2024-05-09T21:50:12.463Z,85.48
2024-05-09T21:52:41.882Z,85.78
2024-05-09T21:55:08.700Z,85.99
2024-05-09T21:57:35.451Z,86.44
2024-05-09T22:00:02.294Z,86.75
2024-05-09T22:02:29.219Z,87.04
2024-05-09T22:04:56.004Z,87.25
2024-05-09T22:07:23.593Z,87.77
2024-05-09T22:09:50.273Z,87.64
2024-05-09T22:12:16.886Z,88.89
2024-05-09T22:14:43.446Z,88.47
2024-05-09T22:17:10.057Z,89.19
2024-05-09T22:19:36.771Z,89.39
2024-05-09T22:22:03.734Z,90.05
2024-05-09T22:24:30.399Z,90.85
2024-05-09T22:26:57.011Z,91.19
2024-05-09T22:29:23.627Z,91.68
2024-05-09T22:31:50.171Z,92.37
2024-05-09T22:34:16.877Z,92.63
2024-05-09T22:36:43.546Z,92.98
2024-05-09T22:39:10.138Z,92.82
2024-05-09T22:41:36.762Z,93.09
2024-05-09T22:44:03.613Z,93.14
2024-05-09T22:46:30.318Z,93.33
2024-05-09T22:48:57.002Z,93.38
2024-05-09T22:51:23.618Z,93.94
2024-05-09T22:53:50.247Z,93.84
2024-05-09T22:56:26.342Z,94.41
2024-05-09T22:58:52.894Z,94.12
2024-05-09T23:01:19.620Z,94.24
2024-05-09T23:03:47.154Z,95.18
2024-05-09T23:06:13.967Z,94.79
2024-05-09T23:08:40.543Z,94.65
2024-05-09T23:11:07.151Z,94.67
2024-05-09T23:13:34.536Z,95.19
2024-05-09T23:16:01.357Z,95.81
2024-05-09T23:18:28.090Z,95.93
2024-05-09T23:20:54.704Z,96.36
2024-05-09T23:23:21.310Z,95.75
2024-05-09T23:25:49.391Z,95.15
2024-05-09T23:28:16.142Z,95.39
2024-05-09T23:30:42.867Z,95.06
2024-05-09T23:33:11.675Z,95.33
2024-05-09T23:35:41.139Z,95.32
2024-05-09T23:38:07.733Z,95.53
2024-05-09T23:40:38.827Z,95.31
2024-05-09T23:43:11.261Z,95.66
2024-05-09T23:45:38.710Z,96.70
2024-05-09T23:48:06.125Z,96.72
2024-05-09T23:50:36.479Z,97.40
2024-05-09T23:53:05.974Z,97.26
2024-05-09T23:55:33.151Z,98.36
2024-05-09T23:57:59.938Z,97.64
